PHKO METAR and TAF weather

Enter ICAO airport designator
Station Type Date Time Source
PHKO METAR 2022/01/27 22:53 UTC NOAA

PHKO 272253Z 22010KT 10SM SCT060 28/17 A3004 RMK AO2 SLP172 T02780172


Station Type Date Time Source
PHKO Decoded METAR 2022/01/27 22:53 UTC NOAA

KONA INTERNATIONAL AIRPORT, HI, United States (PHKO) 19-44N 156-03W 27M
Jan 27, 2022 - 05:53 PM EST / 2022.01.27 2253 UTC
Wind: from the SW (220 degrees) at 12 MPH (10 KT):0
Visibility: 10 mile(s):0
Sky conditions: partly cloudy
Temperature: 82.0 F (27.8 C)
Dew Point: 63.0 F (17.2 C)
Relative Humidity: 52%
Pressure (altimeter): 30.04 in. Hg (1017 hPa)
ob: PHKO 272253Z 22010KT 10SM SCT060 28/17 A3004 RMK AO2 SLP172 T02780172
cycle: 23

Station Type Date Time Source
PHKO TAF 2022/01/27 18:33 UTC NOAA

TAF PHKO 271731Z 2718/2818 11005KT P6SM FEW045
FM272100 23010KT P6SM FEW030 SCT040
FM280200 VRB05KT P6SM SCT025 SCT045
FM280600 11005KT P6SM SKC

Example: see airport list